createdAt,value
2022-08-03T00:01:28.845Z,81.14
2022-08-03T00:03:55.487Z,81.69
2022-08-03T00:06:21.925Z,81.65
2022-08-03T00:08:51.556Z,81.67
2022-08-03T00:11:28.381Z,82.06
2022-08-03T00:13:54.929Z,82.01
2022-08-03T00:16:22.462Z,81.81
2022-08-03T00:18:49.701Z,82.02
2022-08-03T00:21:29.278Z,82.10
2022-08-03T00:23:56.231Z,82.61
2022-08-03T00:26:23.821Z,82.57
2022-08-03T00:28:50.763Z,82.52
2022-08-03T00:31:51.509Z,82.53
2022-08-03T00:34:29.834Z,82.54
2022-08-03T00:37:11.306Z,82.88
2022-08-03T00:39:43.458Z,82.70
2022-08-03T00:42:21.172Z,82.75
2022-08-03T00:44:47.712Z,82.95
2022-08-03T00:47:14.212Z,82.92
2022-08-03T00:50:14.041Z,82.99
2022-08-03T00:52:40.678Z,83.26
2022-08-03T00:55:07.644Z,83.40
2022-08-03T00:57:34.282Z,83.45
2022-08-03T01:00:01.006Z,83.57
2022-08-03T01:02:28.969Z,83.72
2022-08-03T01:05:05.937Z,83.54
2022-08-03T01:08:17.191Z,83.35
2022-08-03T01:11:12.244Z,83.34
2022-08-03T01:14:18.857Z,83.63
2022-08-03T01:16:59.657Z,83.39
2022-08-03T01:19:29.137Z,83.64
2022-08-03T01:22:40.389Z,83.55
2022-08-03T01:25:23.200Z,83.84
2022-08-03T01:28:27.136Z,83.63
2022-08-03T01:30:59.079Z,83.87
2022-08-03T01:33:43.739Z,83.84
2022-08-03T01:36:14.586Z,84.20
2022-08-03T01:38:58.722Z,84.32
2022-08-03T01:41:47.866Z,84.12
2022-08-03T01:44:30.295Z,84.46
2022-08-03T01:47:03.720Z,84.40
2022-08-03T01:49:35.502Z,84.30
2022-08-03T01:52:05.571Z,84.36
2022-08-03T01:54:40.819Z,84.29
2022-08-03T01:57:14.349Z,84.61
2022-08-03T01:59:43.093Z,84.56
2022-08-03T02:02:32.585Z,84.37
2022-08-03T02:05:20.864Z,84.48
2022-08-03T02:07:54.186Z,84.28
2022-08-03T02:10:34.884Z,84.50
2022-08-03T02:13:07.067Z,84.35
2022-08-03T02:16:03.966Z,84.43
2022-08-03T02:18:35.517Z,84.61
2022-08-03T02:21:10.779Z,84.79
2022-08-03T02:23:38.778Z,84.74
2022-08-03T02:26:08.682Z,84.82
2022-08-03T02:29:21.850Z,84.81
2022-08-03T02:32:57.678Z,85.10
2022-08-03T02:35:27.090Z,85.36
2022-08-03T02:37:59.663Z,85.18
2022-08-03T02:40:41.245Z,85.27
2022-08-03T02:43:23.014Z,85.11
2022-08-03T02:46:02.780Z,85.13
2022-08-03T02:48:36.926Z,85.13
2022-08-03T02:51:10.322Z,85.09
2022-08-03T02:53:37.265Z,85.24
2022-08-03T02:56:08.657Z,85.15
2022-08-03T02:58:36.317Z,85.19
2022-08-03T03:01:03.566Z,85.17
2022-08-03T03:03:31.889Z,85.10
2022-08-03T03:06:10.481Z,85.20
2022-08-03T03:08:37.249Z,85.16
2022-08-03T03:11:08.969Z,84.97
2022-08-03T03:14:33.509Z,85.00
2022-08-03T03:17:11.832Z,85.45
2022-08-03T03:19:40.865Z,85.50
2022-08-03T03:22:08.528Z,85.38
2022-08-03T03:24:39.958Z,85.41
2022-08-03T03:27:36.721Z,85.09
2022-08-03T03:30:05.540Z,85.29
2022-08-03T03:32:32.542Z,85.58
2022-08-03T03:34:59.685Z,85.27
2022-08-03T03:37:29.484Z,85.38
2022-08-03T03:39:56.339Z,85.07
2022-08-03T03:42:25.990Z,85.54
2022-08-03T03:44:53.869Z,85.34
2022-08-03T03:47:32.495Z,85.32
2022-08-03T03:50:11.733Z,85.25
2022-08-03T03:52:38.338Z,85.31
2022-08-03T03:55:05.183Z,85.08
2022-08-03T03:57:54.440Z,85.07
2022-08-03T04:00:22.717Z,85.42
2022-08-03T04:02:51.192Z,85.59
2022-08-03T04:05:36.340Z,85.42
2022-08-03T04:08:35.253Z,85.40
2022-08-03T04:11:34.557Z,85.46
2022-08-03T04:14:23.231Z,85.39
2022-08-03T04:16:54.845Z,85.52
2022-08-03T04:19:39.552Z,85.55
2022-08-03T04:22:17.831Z,85.68
2022-08-03T04:24:51.919Z,85.58
2022-08-03T04:28:09.750Z,85.73
2022-08-03T04:30:47.470Z,85.79
2022-08-03T04:33:16.289Z,85.35
2022-08-03T04:35:58.673Z,85.66
2022-08-03T04:38:31.657Z,85.44
2022-08-03T04:41:01.496Z,85.36
2022-08-03T04:43:29.373Z,85.46
2022-08-03T04:45:58.851Z,85.59
2022-08-03T04:48:28.977Z,85.55
2022-08-03T04:50:55.519Z,85.43
2022-08-03T04:53:29.164Z,85.31
2022-08-03T04:55:55.589Z,85.34
2022-08-03T04:58:22.005Z,85.55
2022-08-03T05:00:51.326Z,85.73
2022-08-03T05:03:20.505Z,85.75
2022-08-03T05:05:52.253Z,85.82
2022-08-03T05:08:20.666Z,85.94
2022-08-03T05:11:01.036Z,85.89
2022-08-03T05:13:27.541Z,85.84
2022-08-03T05:15:53.955Z,85.59
2022-08-03T05:18:20.388Z,85.66
2022-08-03T05:20:47.852Z,85.79
2022-08-03T05:23:14.461Z,85.85
2022-08-03T05:25:41.136Z,85.81
2022-08-03T05:28:16.382Z,85.62
2022-08-03T05:30:44.821Z,85.46
2022-08-03T05:33:11.298Z,85.50
2022-08-03T05:35:55.843Z,85.66
2022-08-03T05:38:34.692Z,85.41
2022-08-03T05:41:21.924Z,85.98
2022-08-03T05:43:56.226Z,85.46
2022-08-03T05:46:28.556Z,85.70
2022-08-03T05:48:55.021Z,85.33
2022-08-03T05:51:21.618Z,85.42
2022-08-03T05:53:48.089Z,85.44
2022-08-03T05:56:16.443Z,85.35
2022-08-03T05:58:47.590Z,85.25
2022-08-03T06:01:24.694Z,85.39
2022-08-03T06:04:03.568Z,85.07
2022-08-03T06:06:32.342Z,84.95
2022-08-03T06:09:03.376Z,85.40
2022-08-03T06:11:29.788Z,85.11
2022-08-03T06:13:56.280Z,85.09
2022-08-03T06:16:24.829Z,84.63
2022-08-03T06:18:51.265Z,84.54
2022-08-03T06:21:27.182Z,85.15
2022-08-03T06:23:58.754Z,85.01
2022-08-03T06:26:55.028Z,84.35
2022-08-03T06:29:21.459Z,84.94
2022-08-03T06:31:50.965Z,83.97
2022-08-03T06:34:33.715Z,84.03
2022-08-03T06:37:02.476Z,84.59
2022-08-03T06:39:36.932Z,83.98
2022-08-03T06:42:04.168Z,84.19
2022-08-03T06:44:30.712Z,84.23
2022-08-03T06:46:57.293Z,83.96
2022-08-03T06:49:28.025Z,83.49
2022-08-03T06:52:10.962Z,83.90
2022-08-03T06:54:37.476Z,84.09
2022-08-03T06:57:04.611Z,83.54
2022-08-03T07:00:08.077Z,83.36
2022-08-03T07:02:19.878Z,83.62
2022-08-03T07:04:48.779Z,83.54
2022-08-03T07:07:15.271Z,83.83
2022-08-03T07:09:57.034Z,83.75
2022-08-03T07:12:28.055Z,83.72
2022-08-03T07:15:53.970Z,83.62
2022-08-03T07:18:09.854Z,83.61
2022-08-03T07:20:36.338Z,84.26
2022-08-03T07:23:06.970Z,83.50
2022-08-03T07:25:41.502Z,82.99
2022-08-03T07:28:08.449Z,83.13
2022-08-03T07:30:36.961Z,82.78
2022-08-03T07:33:08.630Z,82.80
2022-08-03T07:35:35.110Z,82.01
2022-08-03T07:38:08.856Z,82.22
2022-08-03T07:40:37.300Z,81.65
2022-08-03T07:43:05.073Z,82.35
2022-08-03T07:45:44.885Z,81.79
2022-08-03T07:48:15.344Z,81.12
2022-08-03T07:50:47.107Z,81.88
2022-08-03T07:53:15.623Z,81.85
2022-08-03T07:55:42.432Z,81.25
2022-08-03T07:58:12.578Z,80.85
2022-08-03T08:00:41.849Z,81.42
2022-08-03T08:03:08.700Z,80.70
2022-08-03T08:05:53.675Z,80.54
2022-08-03T08:08:32.425Z,80.01
2022-08-03T08:10:59.065Z,79.61
2022-08-03T08:13:25.905Z,80.52
2022-08-03T08:15:52.444Z,78.57
2022-08-03T08:18:18.945Z,78.52
2022-08-03T08:20:58.144Z,78.51
2022-08-03T08:23:44.149Z,79.17
2022-08-03T08:26:13.088Z,79.15
2022-08-03T08:28:45.741Z,79.16
2022-08-03T08:31:12.221Z,78.70
2022-08-03T08:36:25.245Z,77.29
2022-08-03T08:38:51.765Z,77.49
2022-08-03T08:41:18.287Z,77.79
2022-08-03T08:43:44.849Z,76.51
2022-08-03T08:46:23.452Z,76.57
2022-08-03T08:48:51.745Z,76.65
2022-08-03T08:51:20.706Z,76.18
2022-08-03T08:53:52.054Z,75.42
2022-08-03T08:56:40.441Z,75.86
2022-08-03T08:59:07.421Z,74.42
2022-08-03T09:01:34.002Z,73.69
2022-08-03T09:04:11.181Z,74.19
2022-08-03T09:07:04.413Z,73.69
2022-08-03T09:10:10.661Z,73.17
2022-08-03T09:12:42.344Z,73.82
2022-08-03T09:15:18.540Z,73.16
2022-08-03T09:17:50.353Z,71.63
2022-08-03T09:20:26.482Z,71.91
2022-08-03T09:23:09.737Z,71.70
2022-08-03T09:25:59.785Z,71.56
2022-08-03T09:29:00.060Z,70.65
2022-08-03T09:31:30.102Z,70.12
2022-08-03T09:34:28.697Z,69.71
2022-08-03T09:38:11.978Z,70.23
2022-08-03T09:40:35.203Z,69.67
2022-08-03T09:43:15.929Z,69.97
2022-08-03T09:45:42.840Z,68.43
2022-08-03T09:48:36.771Z,69.48
2022-08-03T09:51:13.014Z,69.14
2022-08-03T09:53:57.283Z,67.61
2022-08-03T09:56:38.588Z,67.31
2022-08-03T09:59:05.082Z,67.17
2022-08-03T10:01:36.264Z,68.51
2022-08-03T10:04:05.878Z,66.81
2022-08-03T10:06:32.548Z,66.08
2022-08-03T10:09:16.489Z,66.07
2022-08-03T10:11:46.980Z,65.76
2022-08-03T10:14:20.147Z,66.48
2022-08-03T10:16:47.790Z,65.88
2022-08-03T10:19:15.698Z,66.32
2022-08-03T10:21:59.422Z,64.45
2022-08-03T10:24:28.435Z,66.11
2022-08-03T10:27:07.203Z,66.51
2022-08-03T10:29:47.034Z,65.78
2022-08-03T10:32:30.202Z,64.96
2022-08-03T10:35:20.927Z,64.52
2022-08-03T10:38:09.833Z,63.62
2022-08-03T10:40:57.172Z,62.97
2022-08-03T10:43:34.116Z,63.52
2022-08-03T10:46:02.429Z,63.49
2022-08-03T10:48:30.110Z,61.80
2022-08-03T10:50:56.860Z,61.33
2022-08-03T10:53:40.279Z,62.04
2022-08-03T10:56:49.616Z,62.11
2022-08-03T10:59:40.189Z,61.35
2022-08-03T11:02:09.848Z,61.57
2022-08-03T11:04:36.386Z,60.96
2022-08-03T11:07:22.822Z,60.71
2022-08-03T11:09:54.909Z,59.81
2022-08-03T11:12:32.401Z,60.03
2022-08-03T11:15:08.464Z,58.64
2022-08-03T11:17:46.484Z,57.36
2022-08-03T11:20:48.960Z,59.23
2022-08-03T11:23:17.524Z,57.61
2022-08-03T11:26:08.836Z,59.56
2022-08-03T11:28:35.504Z,56.27
2022-08-03T11:31:48.686Z,57.75
2022-08-03T11:34:13.288Z,57.85
2022-08-03T11:37:22.855Z,58.50
2022-08-03T11:39:51.870Z,55.75
2022-08-03T11:42:24.609Z,56.75
2022-08-03T11:44:52.573Z,56.56
2022-08-03T11:47:20.786Z,54.94
2022-08-03T11:49:48.333Z,54.51
2022-08-03T11:52:17.026Z,55.10
2022-08-03T11:54:56.719Z,55.68
2022-08-03T11:59:13.118Z,55.67
2022-08-03T12:00:26.114Z,53.36
2022-08-03T12:03:07.953Z,53.77
2022-08-03T12:05:38.704Z,53.31
2022-08-03T12:08:07.074Z,54.39
2022-08-03T12:10:34.457Z,52.41
2022-08-03T12:13:02.500Z,50.98
2022-08-03T12:15:43.577Z,53.91
2022-08-03T12:18:16.240Z,52.64
2022-08-03T12:20:43.727Z,52.24
2022-08-03T12:23:37.782Z,53.78
2022-08-03T12:26:10.121Z,51.99
2022-08-03T12:28:38.327Z,50.87
2022-08-03T12:31:07.748Z,51.41
2022-08-03T12:33:58.834Z,52.32
2022-08-03T12:36:53.683Z,52.85
2022-08-03T12:39:31.043Z,51.68
2022-08-03T12:42:01.809Z,51.66
2022-08-03T12:44:35.732Z,47.57
2022-08-03T12:47:03.612Z,48.42
2022-08-03T12:49:57.095Z,49.42
2022-08-03T12:52:23.949Z,49.18
2022-08-03T12:54:58.481Z,49.41
2022-08-03T12:57:53.956Z,50.23
2022-08-03T13:00:28.560Z,48.74
2022-08-03T13:05:53.653Z,49.09
2022-08-03T13:08:25.711Z,50.34
2022-08-03T13:10:52.642Z,49.92
2022-08-03T13:13:20.821Z,50.26
2022-08-03T13:15:48.144Z,50.84
2022-08-03T13:18:17.350Z,50.77
2022-08-03T13:20:44.191Z,50.60
2022-08-03T13:23:12.958Z,51.90
2022-08-03T13:25:55.078Z,49.87
2022-08-03T13:28:22.549Z,50.80
2022-08-03T13:30:48.995Z,52.04
2022-08-03T13:33:15.518Z,51.76
2022-08-03T13:35:41.904Z,51.33
2022-08-03T13:38:08.467Z,51.36
2022-08-03T13:40:41.479Z,51.03
2022-08-03T13:43:08.929Z,51.64
2022-08-03T13:45:35.468Z,50.84
2022-08-03T13:48:01.971Z,50.82
2022-08-03T13:50:28.481Z,50.93
2022-08-03T13:52:55.029Z,51.69
2022-08-03T13:55:21.521Z,52.27
2022-08-03T13:58:02.242Z,51.05
2022-08-03T14:00:33.993Z,51.80
2022-08-03T14:03:12.801Z,52.41
2022-08-03T14:05:41.772Z,52.85
2022-08-03T14:08:09.057Z,52.86
2022-08-03T14:10:37.916Z,53.14
2022-08-03T14:13:04.953Z,51.92
2022-08-03T14:15:31.803Z,53.32
2022-08-03T14:18:03.690Z,52.34
2022-08-03T14:20:38.458Z,52.84
2022-08-03T14:23:12.885Z,51.11
2022-08-03T14:25:44.241Z,49.95
2022-08-03T14:28:19.342Z,50.65
2022-08-03T14:30:46.110Z,51.82
2022-08-03T14:33:12.589Z,52.46
2022-08-03T14:35:39.083Z,52.73
2022-08-03T14:38:07.645Z,52.71
2022-08-03T14:40:37.127Z,52.35
2022-08-03T14:43:03.820Z,52.51
2022-08-03T14:45:30.457Z,53.63
2022-08-03T14:50:33.158Z,52.41
2022-08-03T14:50:50.185Z,52.71
2022-08-03T14:53:18.033Z,52.23
2022-08-03T14:55:50.264Z,53.46
2022-08-03T14:58:20.756Z,53.23
2022-08-03T15:00:48.055Z,53.42
2022-08-03T15:03:16.610Z,54.60
2022-08-03T15:05:43.750Z,53.98
2022-08-03T15:08:10.310Z,53.67
2022-08-03T15:10:44.644Z,53.47
2022-08-03T15:13:13.050Z,53.41
2022-08-03T15:15:40.033Z,55.41
2022-08-03T15:18:06.652Z,54.17
2022-08-03T15:20:43.783Z,53.47
2022-08-03T15:23:11.557Z,54.58
2022-08-03T15:26:30.331Z,54.15
2022-08-03T15:28:24.574Z,54.59
2022-08-03T15:30:54.407Z,54.94
2022-08-03T15:33:21.219Z,54.83
2022-08-03T15:35:48.045Z,52.49
2022-08-03T15:38:14.656Z,54.35
2022-08-03T15:40:41.640Z,54.44
2022-08-03T15:43:08.486Z,54.97
2022-08-03T15:45:36.525Z,53.79
2022-08-03T15:48:04.713Z,53.91
2022-08-03T15:50:31.143Z,53.71
2022-08-03T15:52:57.587Z,54.44
2022-08-03T15:55:26.134Z,54.34
2022-08-03T15:59:03.265Z,54.29
2022-08-03T16:01:05.095Z,54.32
2022-08-03T16:03:35.017Z,53.29
2022-08-03T16:06:03.529Z,53.90
2022-08-03T16:08:30.715Z,54.94
2022-08-03T16:10:58.663Z,54.80
2022-08-03T16:14:12.487Z,55.40
2022-08-03T16:16:46.612Z,54.96
2022-08-03T16:19:23.429Z,54.78
2022-08-03T16:21:50.163Z,54.64
2022-08-03T16:24:17.506Z,55.15
2022-08-03T16:26:51.747Z,55.46
2022-08-03T16:29:36.803Z,55.74
2022-08-03T16:32:09.381Z,55.56
2022-08-03T16:34:41.313Z,54.78
2022-08-03T16:37:36.566Z,55.96
2022-08-03T16:39:55.618Z,55.35
2022-08-03T16:42:22.162Z,56.42
2022-08-03T16:44:48.801Z,57.26
2022-08-03T16:47:21.760Z,56.57
2022-08-03T16:49:53.713Z,56.81
2022-08-03T16:52:26.114Z,57.86
2022-08-03T16:54:53.965Z,56.17
2022-08-03T16:57:55.709Z,56.31
2022-08-03T17:00:34.628Z,58.48
2022-08-03T17:03:04.230Z,57.15
2022-08-03T17:05:43.718Z,57.63
2022-08-03T17:08:32.320Z,57.81
2022-08-03T17:10:58.774Z,58.48
2022-08-03T17:13:27.648Z,58.25
2022-08-03T17:16:08.877Z,58.02
2022-08-03T17:18:58.695Z,59.20
2022-08-03T17:21:30.953Z,59.97
2022-08-03T17:28:51.234Z,58.39
2022-08-03T17:30:56.025Z,57.39
2022-08-03T17:33:45.240Z,57.14
2022-08-03T17:36:36.984Z,57.29
2022-08-03T17:39:55.552Z,57.84
2022-08-03T17:42:31.240Z,57.63
2022-08-03T17:45:07.363Z,57.66
2022-08-03T17:47:57.408Z,57.05
2022-08-03T17:50:32.965Z,57.28
2022-08-03T17:53:23.437Z,57.52
2022-08-03T17:56:04.110Z,57.37
2022-08-03T17:58:58.405Z,58.36
2022-08-03T18:02:06.474Z,57.83
2022-08-03T18:05:16.829Z,58.53
2022-08-03T18:07:59.183Z,59.71
2022-08-03T18:10:34.473Z,58.90
2022-08-03T18:13:19.645Z,59.85
2022-08-03T18:16:12.897Z,59.76
2022-08-03T18:18:54.829Z,60.86
2022-08-03T18:22:02.733Z,62.07
2022-08-03T18:24:34.296Z,61.99
2022-08-03T18:27:02.685Z,62.81
2022-08-03T18:29:30.632Z,60.79
2022-08-03T18:32:33.306Z,61.15
2022-08-03T18:35:04.231Z,61.31
2022-08-03T18:37:32.327Z,62.25
2022-08-03T18:40:33.094Z,62.22
2022-08-03T18:42:59.574Z,64.25
2022-08-03T18:45:57.366Z,62.26
2022-08-03T18:48:35.579Z,63.49
2022-08-03T18:51:43.049Z,64.80
2022-08-03T18:55:02.920Z,64.62
2022-08-03T18:57:43.326Z,65.39
2022-08-03T19:00:15.900Z,65.65
2022-08-03T19:05:56.457Z,66.07
2022-08-03T19:08:47.841Z,66.38
2022-08-03T19:11:28.049Z,66.56
2022-08-03T19:13:59.222Z,66.09
2022-08-03T19:16:38.633Z,66.07
2022-08-03T19:19:10.380Z,66.77
2022-08-03T19:21:44.933Z,67.33
2022-08-03T19:24:13.985Z,65.98
2022-08-03T19:26:43.389Z,66.60
2022-08-03T19:29:59.583Z,65.73
2022-08-03T19:32:19.426Z,64.88
2022-08-03T19:34:47.885Z,65.92
2022-08-03T19:37:15.537Z,65.43
2022-08-03T19:39:43.349Z,65.49
2022-08-03T20:53:07.168Z,73.33
2022-08-03T20:55:47.993Z,73.60
2022-08-03T20:58:28.526Z,73.54
2022-08-03T21:01:11.231Z,73.76
2022-08-03T21:03:55.378Z,74.01
2022-08-03T21:06:37.704Z,74.14
2022-08-03T21:09:17.344Z,74.21
2022-08-03T21:11:48.862Z,74.21
2022-08-03T21:13:01.259Z,65.83
2022-08-03T21:14:20.047Z,74.56
2022-08-03T21:16:52.397Z,74.49
2022-08-03T21:19:21.709Z,74.47
2022-08-03T21:21:55.271Z,74.15
2022-08-03T21:24:30.647Z,74.51
2022-08-03T21:27:00.331Z,74.67
2022-08-03T21:29:28.220Z,74.64
2022-08-03T21:31:59.224Z,74.75
2022-08-03T21:34:27.256Z,74.95
2022-08-03T21:36:53.677Z,75.07
2022-08-03T21:39:20.243Z,75.23
2022-08-03T21:41:57.049Z,75.20
2022-08-03T21:44:28.752Z,75.49
2022-08-03T21:46:56.790Z,76.05
2022-08-03T21:50:07.262Z,75.37
2022-08-03T21:52:21.548Z,75.87
2022-08-03T21:55:05.664Z,75.24
2022-08-03T21:57:33.977Z,75.93
2022-08-03T22:00:27.585Z,75.63
2022-08-03T22:02:58.707Z,76.46
2022-08-03T22:05:42.501Z,76.23
2022-08-03T22:08:35.163Z,76.13
2022-08-03T22:11:04.574Z,76.65
2022-08-03T22:13:43.141Z,76.53
2022-08-03T22:16:11.584Z,76.59
2022-08-03T22:18:40.201Z,76.71
2022-08-03T22:21:27.619Z,76.72
2022-08-03T22:24:06.202Z,76.98
2022-08-03T22:27:06.980Z,76.64
2022-08-03T22:29:34.773Z,77.03
2022-08-03T22:32:01.448Z,77.11
2022-08-03T22:34:28.530Z,77.39
2022-08-03T22:37:02.113Z,76.68
2022-08-03T22:39:39.879Z,76.75
2022-08-03T22:42:08.798Z,77.32
2022-08-03T22:44:36.037Z,77.19
2022-08-03T22:47:09.681Z,76.89
2022-08-03T22:49:43.889Z,77.08
2022-08-03T22:52:14.716Z,76.89
2022-08-03T22:54:42.261Z,77.33
2022-08-03T22:57:09.121Z,77.42
2022-08-03T22:59:42.036Z,77.49
2022-08-03T23:02:21.342Z,77.32
2022-08-03T23:05:02.731Z,77.04
2022-08-03T23:07:37.799Z,77.42
2022-08-03T23:10:08.997Z,77.63
2022-08-03T23:12:55.611Z,77.47
2022-08-03T23:15:26.279Z,77.93
2022-08-03T23:17:58.565Z,77.72
2022-08-03T23:20:36.643Z,77.66
2022-08-03T23:23:04.975Z,78.11
2022-08-03T23:25:31.664Z,78.23
2022-08-03T23:28:05.067Z,78.71
2022-08-03T23:30:37.279Z,78.63
2022-08-03T23:33:13.084Z,78.56
2022-08-03T23:36:17.238Z,78.74
2022-08-03T23:38:46.388Z,78.73
2022-08-03T23:41:13.619Z,78.94
2022-08-03T23:43:46.995Z,78.86
2022-08-03T23:46:19.737Z,78.94
2022-08-03T23:48:46.344Z,79.09
2022-08-03T23:51:46.296Z,78.81
2022-08-03T23:54:50.226Z,79.03
2022-08-03T23:58:00.264Z,79.03
